Time;durP1;ratioP1;P1;durP2;ratioP2;P2;SDS_P1;SDS_P2;PMS_P1;PMS_P2;Temp;Humidity;BMP_temperature;BMP_pressure;BME280_temperature;BME280_humidity;BME280_pressure;Samples;Min_cycle;Max_cycle;Signal;HPM_P1;HPM_P2
2023/11/05 00:01:18;;;;;;;16.60;11.40;;;;;;;6.41;100.00;99872.38;5016315;28;20548;-68
2023/11/05 00:03:43;;;;;;;18.87;11.37;;;;;;;6.39;100.00;99847.91;5017674;28;20037;-68
2023/11/05 00:06:10;;;;;;;16.57;11.30;;;;;;;6.47;100.00;99855.84;5017901;28;20029;-67
2023/11/05 00:08:36;;;;;;;16.27;12.10;;;;;;;6.46;100.00;99854.19;5018156;28;20038;-66
2023/11/05 00:11:02;;;;;;;19.07;12.87;;;;;;;6.51;100.00;99841.31;5017717;28;20045;-65
2023/11/05 00:13:27;;;;;;;17.27;11.70;;;;;;;6.56;100.00;99832.06;5017695;28;20030;-68
2023/11/05 00:15:54;;;;;;;18.43;11.53;;;;;;;6.58;100.00;99824.81;5018002;28;20034;-65
2023/11/05 00:18:20;;;;;;;15.57;11.40;;;;;;;6.62;100.00;99818.19;5017790;28;20036;-67
2023/11/05 00:20:46;;;;;;;16.43;12.20;;;;;;;6.51;100.00;99795.53;5014871;28;20053;-67
2023/11/05 00:23:13;;;;;;;17.67;12.67;;;;;;;6.36;100.00;99779.44;5014344;28;20049;-67
2023/11/05 00:25:39;;;;;;;18.00;12.87;;;;;;;6.56;100.00;99814.38;5014112;28;20061;-65
2023/11/05 00:28:05;;;;;;;18.30;12.77;;;;;;;6.26;100.00;99762.88;5013836;28;20042;-66
2023/11/05 00:30:30;;;;;;;17.77;12.27;;;;;;;6.47;100.00;99791.53;5014367;28;20045;-66
2023/11/05 00:32:56;;;;;;;18.87;12.97;;;;;;;6.52;100.00;99805.13;5014114;28;20495;-67
2023/11/05 00:35:21;;;;;;;20.83;13.37;;;;;;;6.38;100.00;99771.34;5014060;28;20542;-67
2023/11/05 00:37:47;;;;;;;21.87;13.63;;;;;;;6.58;100.00;99801.00;5014006;28;20141;-66
2023/11/05 00:40:12;;;;;;;18.43;12.50;;;;;;;6.61;100.00;99792.75;5013756;28;20042;-66
2023/11/05 00:42:38;;;;;;;20.17;12.83;;;;;;;6.64;100.00;99782.66;5014457;28;20490;-66
2023/11/05 00:45:05;;;;;;;22.43;13.27;;;;;;;6.52;100.00;99773.38;5015198;28;20128;-66
2023/11/05 00:47:31;;;;;;;25.03;17.30;;;;;;;6.42;100.00;99757.66;5013899;28;20038;-67
2023/11/05 00:49:56;;;;;;;34.00;23.73;;;;;;;6.22;100.00;99735.91;5013786;28;20037;-66
2023/11/05 00:52:22;;;;;;;36.97;23.77;;;;;;;6.55;100.00;99782.81;5013680;28;20386;-65
2023/11/05 00:54:47;;;;;;;25.87;18.13;;;;;;;6.55;100.00;99782.81;4996263;28;20049;-67
2023/11/05 00:57:13;;;;;;;25.27;16.77;;;;;;;6.55;100.00;99777.50;5012340;28;20037;-65
2023/11/05 00:59:38;;;;;;;22.53;15.13;;;;;;;6.48;100.00;99777.34;5013981;28;20091;-67
2023/11/05 01:02:04;;;;;;;21.60;15.77;;;;;;;6.57;100.00;99786.13;5013893;28;20048;-65
2023/11/05 01:04:30;;;;;;;23.53;15.10;;;;;;;6.47;100.00;99768.56;5013631;28;20044;-66
2023/11/05 01:06:55;;;;;;;20.23;12.60;;;;;;;6.50;100.00;99770.91;5013390;28;20037;-66
2023/11/05 01:09:21;;;;;;;22.50;13.30;;;;;;;6.51;100.00;99767.25;5013462;28;20044;-65
2023/11/05 01:11:47;;;;;;;20.53;14.03;;;;;;;6.62;100.00;99773.22;5013180;28;20405;-66
2023/11/05 01:14:13;;;;;;;20.40;12.83;;;;;;;5.85;100.00;99656.94;5013451;28;20036;-67
2023/11/05 01:16:39;;;;;;;20.20;13.37;;;;;;;6.46;100.00;99752.88;5013283;28;20181;-68
2023/11/05 01:19:04;;;;;;;22.00;12.57;;;;;;;6.59;100.00;99768.25;5013377;28;20533;-69
2023/11/05 01:21:30;;;;;;;21.13;13.27;;;;;;;6.51;100.00;99750.56;5013282;28;20034;-66
2023/11/05 01:23:55;;;;;;;19.23;12.10;;;;;;;6.42;100.00;99723.28;5012981;28;20060;-66
2023/11/05 01:26:21;;;;;;;22.17;13.83;;;;;;;6.54;100.00;99742.28;5012930;28;20046;-65
2023/11/05 01:28:48;;;;;;;20.40;12.50;;;;;;;6.52;100.00;99742.47;5012976;28;20037;-66
2023/11/05 01:31:15;;;;;;;23.90;13.67;;;;;;;6.43;100.00;99717.00;5012530;28;20046;-66
2023/11/05 01:33:40;;;;;;;18.70;12.87;;;;;;;6.50;100.00;99723.28;5012539;28;20065;-66
2023/11/05 01:36:06;;;;;;;20.53;13.53;;;;;;;6.44;100.00;99713.34;5012989;28;20490;-66
2023/11/05 01:38:32;;;;;;;21.90;13.10;;;;;;;6.47;100.00;99712.19;5012754;28;20087;-67
2023/11/05 01:40:57;;;;;;;20.73;13.73;;;;;;;6.41;100.00;99696.97;5012728;28;20121;-66
2023/11/05 01:43:23;;;;;;;20.03;13.03;;;;;;;6.31;100.00;99668.00;5012814;28;20042;-66
2023/11/05 01:45:49;;;;;;;21.20;13.73;;;;;;;6.50;100.00;99702.13;5012696;28;20038;-65
2023/11/05 01:48:14;;;;;;;21.60;14.37;;;;;;;6.21;100.00;99643.53;5012704;28;20037;-67
2023/11/05 01:50:41;;;;;;;23.03;14.17;;;;;;;6.37;100.00;99672.69;5012754;28;20034;-66
2023/11/05 01:53:07;;;;;;;20.40;13.47;;;;;;;6.41;100.00;99671.38;5012612;28;20038;-66
2023/11/05 01:55:35;;;;;;;26.70;13.30;;;;;;;6.41;100.00;99665.25;5012484;28;20030;-67
2023/11/05 01:58:03;;;;;;;18.77;13.67;;;;;;;6.62;100.00;99688.56;5012621;28;20482;-67
2023/11/05 02:00:28;;;;;;;18.93;13.43;;;;;;;6.56;100.00;99678.66;5012589;28;20644;-65
2023/11/05 02:02:54;;;;;;;21.93;13.00;;;;;;;6.63;100.00;99687.56;5012503;28;20257;-65
2023/11/05 02:05:20;;;;;;;19.47;13.87;;;;;;;6.28;100.00;99625.22;5012556;28;20034;-65
2023/11/05 02:07:46;;;;;;;20.83;13.80;;;;;;;6.30;100.00;99631.16;5012175;28;20078;-67
2023/11/05 02:10:12;;;;;;;19.40;13.93;;;;;;;6.56;100.00;99676.00;5012352;28;20456;-65
2023/11/05 02:12:37;;;;;;;23.10;15.00;;;;;;;6.61;100.00;99674.50;5012299;28;20041;-67
2023/11/05 02:15:05;;;;;;;23.30;14.50;;;;;;;6.56;100.00;99673.34;5012445;28;20029;-66
2023/11/05 02:17:36;;;;;;;24.97;14.23;;;;;;;6.49;100.00;99657.31;5012260;28;20081;-65
2023/11/05 02:20:05;;;;;;;25.10;15.67;;;;;;;6.52;100.00;99673.69;5012158;28;20362;-66
2023/11/05 02:22:34;;;;;;;24.20;14.87;;;;;;;6.49;100.00;99662.59;5011890;28;20034;-65
2023/11/05 02:24:59;;;;;;;27.63;15.90;;;;;;;6.50;100.00;99670.38;5011952;28;20076;-68
2023/11/05 02:27:25;;;;;;;23.53;15.43;;;;;;;6.42;100.00;99643.09;5010917;28;20069;-65
2023/11/05 02:29:51;;;;;;;23.17;15.83;;;;;;;6.58;100.00;99658.97;5010867;28;20136;-66
2023/11/05 02:32:16;;;;;;;27.13;16.80;;;;;;;6.53;100.00;99643.59;5011965;28;20570;-65
2023/11/05 02:34:42;;;;;;;25.63;17.33;;;;;;;6.53;100.00;99642.78;5010788;28;20033;-64
2023/11/05 02:37:07;;;;;;;24.93;16.60;;;;;;;6.58;100.00;99652.84;5011822;28;20029;-67
2023/11/05 02:39:33;;;;;;;23.93;16.23;;;;;;;6.57;100.00;99643.25;5011669;28;20132;-65
2023/11/05 02:41:58;;;;;;;25.13;16.40;;;;;;;6.47;100.00;99623.09;5012182;28;20088;-67
2023/11/05 02:44:24;;;;;;;25.70;16.00;;;;;;;6.60;100.00;99635.00;5011525;28;20508;-65
2023/11/05 02:46:49;;;;;;;23.53;15.80;;;;;;;6.65;100.00;99630.03;5010507;28;20037;-66
2023/11/05 02:49:15;;;;;;;27.70;16.03;;;;;;;6.63;100.00;99638.13;5011799;28;20030;-67
2023/11/05 02:51:40;;;;;;;23.40;15.50;;;;;;;6.53;100.00;99616.31;5011702;28;20038;-68
2023/11/05 02:54:06;;;;;;;23.37;14.87;;;;;;;6.53;100.00;99621.59;5011411;28;20076;-66
2023/11/05 02:56:31;;;;;;;23.60;15.27;;;;;;;6.49;100.00;99618.47;5011784;28;20038;-65
2023/11/05 02:58:57;;;;;;;23.93;15.80;;;;;;;6.39;100.00;99606.41;5011929;28;20037;-68
2023/11/05 03:01:24;;;;;;;23.27;14.73;;;;;;;6.36;100.00;99596.97;5013187;28;20034;-65
2023/11/05 03:03:51;;;;;;;25.10;15.27;;;;;;;6.49;100.00;99599.13;5011978;28;20045;-66
2023/11/05 03:06:17;;;;;;;25.87;15.23;;;;;;;6.48;100.00;99586.91;5012373;28;20042;-68
2023/11/05 03:08:43;;;;;;;24.80;14.40;;;;;;;6.55;100.00;99598.47;5011629;28;20033;-66
2023/11/05 03:11:09;;;;;;;24.67;15.47;;;;;;;6.57;100.00;99598.31;5011878;28;20045;-65
2023/11/05 03:13:34;;;;;;;26.33;16.37;;;;;;;5.93;100.00;99489.69;5011763;28;20037;-65
2023/11/05 03:16:00;;;;;;;24.00;16.07;;;;;;;6.45;100.00;99566.91;5010590;28;20120;-66
2023/11/05 03:18:26;;;;;;;23.27;15.43;;;;;;;6.45;100.00;99558.97;5010512;28;20029;-65
2023/11/05 03:20:52;;;;;;;27.17;14.97;;;;;;;6.50;100.00;99564.56;5011596;28;20038;-64
2023/11/05 03:23:18;;;;;;;23.03;13.90;;;;;;;6.58;100.00;99571.69;5011598;28;20395;-66
2023/11/05 03:25:43;;;;;;;23.00;14.60;;;;;;;6.44;100.00;99549.38;5011880;28;20046;-65
2023/11/05 03:28:10;;;;;;;22.07;14.37;;;;;;;6.60;100.00;99555.63;5010101;28;20061;-65
2023/11/05 03:30:36;;;;;;;22.90;11.73;;;;;;;6.52;100.00;99549.38;5011545;28;20048;-67
2023/11/05 03:33:04;;;;;;;19.73;12.10;;;;;;;6.50;100.00;99538.13;5011590;28;20272;-65
2023/11/05 03:35:30;;;;;;;17.70;11.57;;;;;;;6.65;100.00;99561.25;5011536;28;20468;-66
2023/11/05 03:37:55;;;;;;;18.93;11.40;;;;;;;6.67;100.00;99556.66;5011403;28;20671;-65
2023/11/05 03:40:21;;;;;;;20.33;12.60;;;;;;;6.65;100.00;99559.47;5011574;28;20120;-67
2023/11/05 03:42:47;;;;;;;19.67;10.57;;;;;;;6.41;100.00;99520.63;5011438;28;20040;-65
2023/11/05 03:45:13;;;;;;;15.83;10.03;;;;;;;6.60;100.00;99547.69;5011186;28;20164;-66
2023/11/05 03:47:38;;;;;;;16.53;9.93;;;;;;;6.47;100.00;99521.78;5011380;28;20038;-66
2023/11/05 03:50:04;;;;;;;19.67;10.50;;;;;;;6.59;100.00;99536.28;5011042;28;20516;-66
2023/11/05 03:52:30;;;;;;;19.57;10.10;;;;;;;6.58;100.00;99528.53;5010964;28;20037;-66
2023/11/05 03:54:55;;;;;;;19.83;10.20;;;;;;;6.58;100.00;99531.16;5011493;28;20034;-68
2023/11/05 03:57:21;;;;;;;15.83;10.17;;;;;;;6.45;100.00;99500.78;5014831;28;20040;-66
2023/11/05 03:59:47;;;;;;;15.77;8.77;;;;;;;6.51;100.00;99508.03;5014924;28;20046;-66
2023/11/05 04:02:12;;;;;;;15.57;8.63;;;;;;;6.55;100.00;99505.88;5015167;28;20493;-65
2023/11/05 04:04:38;;;;;;;14.03;8.93;;;;;;;6.44;100.00;99485.91;5015197;28;20084;-65
2023/11/05 04:07:06;;;;;;;13.13;8.20;;;;;;;6.39;100.00;99482.94;5015239;28;20158;-65
2023/11/05 04:09:32;;;;;;;12.60;8.43;;;;;;;6.38;100.00;99477.81;5015525;28;20432;-65
2023/11/05 04:11:59;;;;;;;11.30;8.20;;;;;;;6.41;100.00;99480.13;5015367;28;20048;-65
2023/11/05 04:14:25;;;;;;;13.03;8.10;;;;;;;6.45;100.00;99482.25;5015335;28;20104;-65
2023/11/05 04:16:52;;;;;;;11.83;8.07;;;;;;;6.27;100.00;99441.94;5014810;28;20065;-66
2023/11/05 04:19:17;;;;;;;11.73;7.53;;;;;;;6.44;100.00;99464.75;5014688;28;20034;-67
2023/11/05 04:21:43;;;;;;;11.10;7.20;;;;;;;6.46;100.00;99456.66;5013163;28;20044;-67
2023/11/05 04:24:08;;;;;;;9.73;6.53;;;;;;;6.39;100.00;99451.22;5014522;28;20119;-68
2023/11/05 04:26:34;;;;;;;9.13;6.60;;;;;;;6.44;100.00;99453.34;5013975;28;20137;-65
2023/11/05 04:28:59;;;;;;;9.47;5.60;;;;;;;6.23;100.00;99406.28;5014387;28;20088;-65
2023/11/05 04:31:25;;;;;;;7.13;5.07;;;;;;;6.38;100.00;99430.22;5014219;28;20122;-63
2023/11/05 04:33:51;;;;;;;8.57;5.60;;;;;;;6.36;100.00;99418.97;5014033;28;20080;-64
2023/11/05 04:36:16;;;;;;;7.00;5.20;;;;;;;6.25;100.00;99385.78;5013778;28;20560;-66
2023/11/05 04:38:42;;;;;;;7.30;5.30;;;;;;;6.41;100.00;99411.38;5013964;28;20034;-65
2023/11/05 04:41:08;;;;;;;6.80;4.17;;;;;;;6.39;100.00;99408.06;5013941;28;20046;-64
2023/11/05 04:43:33;;;;;;;5.33;4.13;;;;;;;6.33;100.00;99398.97;5014066;28;20044;-64
2023/11/05 04:45:59;;;;;;;5.50;3.90;;;;;;;6.39;100.00;99398.31;5013920;28;20041;-65
2023/11/05 04:48:26;;;;;;;4.93;4.10;;;;;;;6.38;100.00;99407.25;5013907;28;20390;-64
2023/11/05 04:50:51;;;;;;;4.60;4.20;;;;;;;6.36;100.00;99408.38;5012942;28;20037;-63
2023/11/05 04:53:17;;;;;;;4.50;3.73;;;;;;;6.27;100.00;99394.38;5018583;28;20402;-66
2023/11/05 04:55:44;;;;;;;5.40;4.23;;;;;;;5.52;100.00;99280.16;5000776;28;20063;-63
2023/11/05 04:58:09;;;;;;;4.30;3.70;;;;;;;5.90;100.00;99350.00;5018403;28;20041;-65
2023/11/05 05:00:35;;;;;;;5.40;4.60;;;;;;;6.12;100.00;99375.72;5014650;28;20038;-66
2023/11/05 05:03:02;;;;;;;4.57;3.77;;;;;;;6.24;100.00;99384.13;5013383;28;20045;-66
2023/11/05 05:05:27;;;;;;;4.57;4.03;;;;;;;6.24;100.00;99383.31;5013633;28;20125;-63
2023/11/05 05:07:53;;;;;;;4.50;3.80;;;;;;;6.20;100.00;99369.59;5013438;28;20511;-64
2023/11/05 05:10:18;;;;;;;4.93;4.33;;;;;;;6.25;100.00;99361.97;5014230;28;20567;-64
2023/11/05 05:12:44;;;;;;;5.30;4.60;;;;;;;6.25;100.00;99358.50;5012234;28;20048;-67
2023/11/05 05:15:10;;;;;;;5.67;4.40;;;;;;;6.13;100.00;99335.09;5013412;28;20033;-66
2023/11/05 05:17:35;;;;;;;4.93;4.13;;;;;;;6.08;100.00;99326.03;5013172;28;20034;-64
2023/11/05 05:20:02;;;;;;;3.80;3.37;;;;;;;6.20;100.00;99336.06;5013083;28;20038;-65
2023/11/05 05:22:31;;;;;;;4.77;3.60;;;;;;;6.16;100.00;99333.94;5013316;28;20121;-65
2023/11/05 05:24:56;;;;;;;4.67;3.63;;;;;;;6.10;100.00;99329.31;5013100;28;20128;-64
2023/11/05 05:27:22;;;;;;;4.17;3.40;;;;;;;6.03;100.00;99345.00;5012992;28;20500;-64
2023/11/05 05:29:47;;;;;;;3.60;3.30;;;;;;;6.00;100.00;99328.66;5012892;28;20036;-65
2023/11/05 05:32:13;;;;;;;4.73;4.33;;;;;;;5.93;100.00;99306.53;5013045;28;20034;-65
2023/11/05 05:34:38;;;;;;;5.20;2.90;;;;;;;6.04;100.00;99330.78;5013047;28;20060;-64
2023/11/05 05:37:04;;;;;;;6.00;3.97;;;;;;;6.07;100.00;99345.47;5012996;28;20417;-66
2023/11/05 05:39:30;;;;;;;4.13;3.40;;;;;;;6.03;100.00;99354.75;5012612;28;20129;-65
2023/11/05 05:41:56;;;;;;;3.97;3.43;;;;;;;6.08;100.00;99357.75;5012777;28;20113;-65
2023/11/05 05:44:22;;;;;;;4.53;3.83;;;;;;;6.04;100.00;99345.81;5012691;28;20465;-64
2023/11/05 05:46:47;;;;;;;3.30;3.00;;;;;;;6.10;100.00;99353.94;5012443;28;20140;-65
2023/11/05 05:49:13;;;;;;;4.60;3.23;;;;;;;6.14;100.00;99357.06;5013201;28;20036;-64
2023/11/05 05:51:38;;;;;;;3.40;2.97;;;;;;;6.18;100.00;99350.44;5013011;28;20112;-66
2023/11/05 05:54:05;;;;;;;4.43;3.50;;;;;;;6.22;100.00;99349.09;5014124;28;20069;-67
2023/11/05 05:56:30;;;;;;;4.13;3.17;;;;;;;6.17;100.00;99335.56;5014460;28;20037;-64
2023/11/05 05:58:56;;;;;;;4.30;3.50;;;;;;;6.06;100.00;99325.34;5013377;28;20037;-64
2023/11/05 06:01:22;;;;;;;4.43;3.33;;;;;;;6.16;100.00;99344.50;5011757;28;20116;-64
2023/11/05 06:03:47;;;;;;;4.57;4.17;;;;;;;6.00;100.00;99312.81;5012659;28;20045;-64
2023/11/05 06:06:13;;;;;;;9.00;3.50;;;;;;;6.10;100.00;99322.22;5012422;28;20061;-66
2023/11/05 06:08:39;;;;;;;4.27;3.60;;;;;;;5.92;100.00;99294.34;5012352;28;20141;-65
2023/11/05 06:11:04;;;;;;;4.00;3.10;;;;;;;5.97;100.00;99297.28;5011128;28;20046;-64
2023/11/05 06:13:30;;;;;;;4.20;3.80;;;;;;;6.00;100.00;99302.22;4996465;28;20034;-63
2023/11/05 06:15:55;;;;;;;4.17;3.40;;;;;;;6.08;100.00;99294.31;5012125;28;20414;-64
2023/11/05 06:18:21;;;;;;;4.63;4.13;;;;;;;6.08;100.00;99289.84;5011456;28;20084;-66
2023/11/05 06:20:46;;;;;;;4.50;3.13;;;;;;;6.02;100.00;99290.50;5012310;28;20358;-65
2023/11/05 06:23:12;;;;;;;4.67;3.80;;;;;;;6.10;100.00;99293.13;5012034;28;20140;-65
2023/11/05 06:25:38;;;;;;;5.23;3.90;;;;;;;5.69;100.00;99234.22;5012043;28;20041;-66
2023/11/05 06:28:03;;;;;;;3.93;3.57;;;;;;;5.91;100.00;99256.50;5012042;28;20382;-66
2023/11/05 06:30:29;;;;;;;5.70;2.80;;;;;;;6.13;100.00;99297.25;5012339;28;20041;-66
2023/11/05 06:32:54;;;;;;;7.23;3.70;;;;;;;6.08;100.00;99274.00;5012012;28;20037;-64
2023/11/05 06:35:20;;;;;;;4.60;3.77;;;;;;;6.05;100.00;99257.63;5010646;28;20041;-66
2023/11/05 06:37:46;;;;;;;5.07;3.43;;;;;;;6.14;100.00;99269.84;5012031;28;20046;-66
2023/11/05 06:40:12;;;;;;;4.80;3.53;;;;;;;6.09;100.00;99256.31;5011800;28;20532;-66
2023/11/05 06:42:37;;;;;;;4.03;3.63;;;;;;;6.09;100.00;99235.16;5012011;28;20439;-65
2023/11/05 06:45:03;;;;;;;6.60;4.00;;;;;;;6.23;100.00;99234.44;5011858;28;20034;-66
2023/11/05 06:47:31;;;;;;;4.78;3.83;;;;;;;6.30;100.00;99245.97;5011993;28;20040;-69
2023/11/05 06:49:56;;;;;;;4.37;3.97;;;;;;;6.26;100.00;99249.94;5023725;28;20041;-66
2023/11/05 06:52:22;;;;;;;5.47;4.50;;;;;;;6.24;100.00;99241.38;5031774;28;20045;-65
2023/11/05 06:54:47;;;;;;;6.47;3.93;;;;;;;5.97;100.00;99195.06;5031265;28;20037;-67
2023/11/05 06:57:13;;;;;;;3.97;3.57;;;;;;;6.37;100.00;99239.00;5031167;28;20116;-67
2023/11/05 06:59:39;;;;;;;5.03;4.40;;;;;;;6.27;100.00;99225.16;5031837;28;20401;-64
2023/11/05 07:02:04;;;;;;;4.83;4.33;;;;;;;6.26;100.00;99215.56;5013527;28;20084;-68
2023/11/05 07:04:31;;;;;;;5.67;4.53;;;;;;;6.36;100.00;99223.28;5021263;28;20038;-65
2023/11/05 07:06:57;;;;;;;7.87;5.53;;;;;;;6.42;100.00;99230.56;5020956;28;20125;-66
2023/11/05 07:09:22;;;;;;;7.23;5.17;;;;;;;6.31;100.00;99202.66;5023537;28;20120;-66
2023/11/05 07:11:48;;;;;;;6.63;4.87;;;;;;;6.51;100.00;99246.19;5021777;28;20112;-67
2023/11/05 07:14:15;;;;;;;5.57;5.07;;;;;;;6.46;100.00;99227.38;5020331;28;20117;-67
2023/11/05 07:16:41;;;;;;;4.73;4.17;;;;;;;6.53;100.00;99222.22;5022841;28;20556;-64
2023/11/05 07:19:07;;;;;;;6.00;5.40;;;;;;;6.55;100.00;99227.31;5018398;28;20513;-65
2023/11/05 07:21:33;;;;;;;6.10;4.73;;;;;;;6.53;100.00;99225.69;5024338;28;20183;-66
2023/11/05 07:23:59;;;;;;;6.27;4.80;;;;;;;6.54;100.00;99208.00;5023843;28;20083;-64
2023/11/05 07:26:24;;;;;;;7.47;5.53;;;;;;;6.64;100.00;99226.28;5019374;28;20042;-65
2023/11/05 07:28:50;;;;;;;5.23;4.73;;;;;;;6.55;100.00;99219.41;5018004;28;20035;-66
2023/11/05 07:31:18;;;;;;;8.07;6.40;;;;;;;6.58;100.00;99222.50;5025901;28;20400;-66
2023/11/05 07:33:43;;;;;;;7.07;5.90;;;;;;;6.51;100.00;99206.53;5024502;28;20503;-63
2023/11/05 07:36:09;;;;;;;6.90;5.03;;;;;;;6.49;100.00;99216.47;5026757;28;20058;-66
2023/11/05 07:38:35;;;;;;;5.90;5.30;;;;;;;6.50;100.00;99222.56;5023633;28;20517;-64
2023/11/05 07:41:00;;;;;;;6.80;5.30;;;;;;;6.43;100.00;99205.75;5026579;28;20401;-66
2023/11/05 07:43:26;;;;;;;7.23;5.87;;;;;;;6.25;100.00;99176.09;5026387;28;20168;-66
2023/11/05 07:45:51;;;;;;;6.70;5.90;;;;;;;6.32;100.00;99191.09;5023735;28;20795;-65
2023/11/05 07:48:20;;;;;;;7.37;5.80;;;;;;;6.24;100.00;99191.13;5023526;28;20046;-65
2023/11/05 07:50:52;;;;;;;6.83;5.27;;;;;;;6.30;100.00;99195.72;5018950;28;20040;-66
2023/11/05 07:53:20;;;;;;;7.27;5.07;;;;;;;6.19;100.00;99153.84;5025527;28;20041;-67
2023/11/05 07:55:45;;;;;;;5.93;5.33;;;;;;;6.22;100.00;99146.38;5027308;28;20060;-65
2023/11/05 07:58:12;;;;;;;5.97;5.13;;;;;;;6.33;100.00;99161.00;5018785;28;20029;-66
2023/11/05 08:00:40;;;;;;;5.53;5.03;;;;;;;6.32;100.00;99169.09;5014734;28;20412;-65
2023/11/05 08:03:06;;;;;;;6.20;4.50;;;;;;;6.34;100.00;99173.22;5022611;28;20044;-66
2023/11/05 08:05:32;;;;;;;8.70;6.33;;;;;;;6.29;100.00;99165.00;5025133;28;20041;-67
2023/11/05 08:07:57;;;;;;;6.67;5.47;;;;;;;6.36;100.00;99165.13;5022823;28;20509;-67
2023/11/05 08:10:23;;;;;;;5.43;4.93;;;;;;;6.49;100.00;99186.53;5023694;28;20034;-65
2023/11/05 08:12:48;;;;;;;5.90;5.40;;;;;;;6.34;100.00;99152.06;5023114;28;20033;-64
2023/11/05 08:15:14;;;;;;;6.00;5.33;;;;;;;6.42;100.00;99170.56;5034102;28;20037;-72
2023/11/05 08:17:40;;;;;;;6.47;5.83;;;;;;;6.48;100.00;99180.44;5032546;28;20436;-66
2023/11/05 08:20:06;;;;;;;5.43;4.63;;;;;;;6.48;100.00;99175.13;5034184;28;20042;-64
2023/11/05 08:22:32;;;;;;;5.57;4.97;;;;;;;6.37;100.00;99146.47;5034132;28;20389;-66
2023/11/05 08:24:58;;;;;;;9.90;4.90;;;;;;;6.36;100.00;99142.19;5033406;28;20556;-65
2023/11/05 08:27:24;;;;;;;5.90;4.57;;;;;;;6.43;100.00;99163.44;5034092;28;20049;-69
2023/11/05 08:29:49;;;;;;;4.87;4.23;;;;;;;6.31;100.00;99146.31;5034183;28;20042;-65
2023/11/05 08:32:17;;;;;;;5.77;5.17;;;;;;;6.38;100.00;99150.75;5034545;28;20500;-68
2023/11/05 08:34:43;;;;;;;5.32;4.82;;;;;;;6.47;100.00;99162.91;5034015;28;20132;-66
2023/11/05 08:37:08;;;;;;;6.37;5.17;;;;;;;6.46;100.00;99150.69;5033671;28;20046;-67
2023/11/05 08:39:34;;;;;;;6.27;5.67;;;;;;;6.39;100.00;99133.88;5033840;28;20037;-65
2023/11/05 08:41:59;;;;;;;8.20;7.00;;;;;;;6.41;100.00;99131.06;5033282;28;20384;-65
2023/11/05 08:44:25;;;;;;;5.43;4.90;;;;;;;6.48;100.00;99143.41;5034833;28;20068;-65
2023/11/05 08:46:51;;;;;;;5.97;5.13;;;;;;;6.45;100.00;99132.34;5033848;28;20504;-67
2023/11/05 08:49:18;;;;;;;6.93;5.97;;;;;;;6.30;100.00;99097.09;5033703;28;20037;-66
2023/11/05 08:51:44;;;;;;;8.03;6.50;;;;;;;6.43;100.00;99111.38;5033500;28;20033;-66
2023/11/05 08:54:11;;;;;;;8.80;6.30;;;;;;;6.50;100.00;99119.44;5033767;28;20037;-65
2023/11/05 08:56:38;;;;;;;8.33;6.13;;;;;;;6.36;100.00;99102.50;5032228;28;20041;-69
2023/11/05 08:59:04;;;;;;;9.73;6.27;;;;;;;6.51;100.00;99121.88;5033848;28;20049;-70
2023/11/05 09:01:31;;;;;;;7.97;6.27;;;;;;;6.33;100.00;99086.16;5033848;28;20116;-68
2023/11/05 09:03:58;;;;;;;8.07;6.40;;;;;;;6.46;100.00;99116.31;5033476;28;20402;-66
2023/11/05 09:06:24;;;;;;;8.63;6.83;;;;;;;6.24;100.00;99081.94;5034089;28;20495;-66
2023/11/05 09:08:50;;;;;;;7.63;6.23;;;;;;;6.39;100.00;99102.16;5035406;28;20432;-67
2023/11/05 09:11:17;;;;;;;6.33;5.37;;;;;;;6.47;100.00;99117.97;5032698;28;20404;-69
2023/11/05 09:13:42;;;;;;;6.53;5.83;;;;;;;6.10;100.00;99054.44;5036771;28;20059;-69
2023/11/05 09:16:10;;;;;;;6.13;5.03;;;;;;;6.46;100.00;99112.84;5039257;28;20123;-66
2023/11/05 09:18:36;;;;;;;7.70;6.30;;;;;;;6.39;100.00;99117.19;5034709;28;20044;-70
2023/11/05 09:21:03;;;;;;;7.13;6.23;;;;;;;6.41;100.00;99116.03;5034442;28;20041;-71
2023/11/05 09:23:30;;;;;;;5.57;4.80;;;;;;;5.69;100.00;99001.81;5034107;28;20089;-69
2023/11/05 09:25:55;;;;;;;5.47;4.77;;;;;;;6.09;100.00;99068.66;5033403;28;20049;-69
2023/11/05 09:28:21;;;;;;;4.87;4.37;;;;;;;6.33;100.00;99109.94;5032295;28;20045;-66
2023/11/05 09:30:47;;;;;;;5.57;4.40;;;;;;;6.18;100.00;99086.09;5032837;28;20033;-69
2023/11/05 09:33:14;;;;;;;6.80;4.70;;;;;;;6.23;100.00;99094.31;5034686;28;20041;-67
2023/11/05 09:35:40;;;;;;;4.97;4.27;;;;;;;6.12;100.00;99100.03;5042324;28;20037;-66
2023/11/05 09:38:06;;;;;;;5.30;4.80;;;;;;;6.07;100.00;99097.91;5052204;28;20045;-67
2023/11/05 09:40:32;;;;;;;4.83;4.33;;;;;;;6.06;100.00;99084.84;5058336;28;20041;-67
2023/11/05 09:43:05;;;;;;;4.60;4.20;;;;;;;5.89;100.00;99068.25;5054536;28;20040;-67
2023/11/05 09:45:33;;;;;;;4.70;4.07;;;;;;;5.83;100.00;99059.19;5053096;28;20025;-69
2023/11/05 09:48:11;;;;;;;5.18;4.65;;;;;;;6.08;100.00;99074.94;5055232;28;20178;-68
2023/11/05 09:50:40;;;;;;;4.55;4.10;;;;;;;6.14;100.00;99082.16;5053765;28;20052;-69
2023/11/05 09:53:16;;;;;;;4.70;4.30;;;;;;;6.00;100.00;99059.13;5034258;28;20041;-69
2023/11/05 09:55:45;;;;;;;4.47;4.07;;;;;;;6.08;100.00;99069.66;5053193;28;20041;-68
2023/11/05 09:58:10;;;;;;;;;;;;;;;6.20;100.00;99086.75;5050438;28;20089;-69
2023/11/05 10:00:37;;;;;;;5.47;4.20;;;;;;;6.17;100.00;99087.09;5034508;28;19970;-72
2023/11/05 10:03:08;;;;;;;5.00;4.30;;;;;;;6.05;100.00;99070.81;5034703;28;20040;-66
2023/11/05 10:05:39;;;;;;;5.07;4.57;;;;;;;6.05;100.00;99056.75;5034599;28;20041;-67
2023/11/05 10:08:05;;;;;;;5.43;4.93;;;;;;;6.14;100.00;99055.72;5034012;28;20488;-66
2023/11/05 10:10:32;;;;;;;5.33;4.57;;;;;;;5.42;100.00;98938.91;5033635;28;20492;-69
2023/11/05 10:12:58;;;;;;;6.77;5.10;;;;;;;6.22;100.00;99063.59;5032799;28;20041;-66
2023/11/05 10:15:24;;;;;;;5.90;5.00;;;;;;;6.15;100.00;99052.91;5035333;28;20033;-67
2023/11/05 10:17:54;;;;;;;6.13;5.53;;;;;;;6.30;100.00;99054.78;5034504;28;20416;-68
2023/11/05 10:20:24;;;;;;;4.87;4.43;;;;;;;6.28;100.00;99043.56;5036032;28;20487;-67
2023/11/05 10:23:03;;;;;;;5.40;4.47;;;;;;;6.32;100.00;99053.59;5031622;28;20157;-66
2023/11/05 10:25:32;;;;;;;4.77;4.17;;;;;;;6.10;100.00;99023.56;5033033;28;20042;-66
2023/11/05 10:27:58;;;;;;;5.80;5.00;;;;;;;6.09;100.00;99018.44;5032222;28;20048;-68
2023/11/05 10:30:26;;;;;;;6.97;6.07;;;;;;;6.08;100.00;99020.25;5032091;28;20036;-66
2023/11/05 10:32:53;;;;;;;4.00;3.70;;;;;;;6.01;100.00;99005.25;5032218;28;20041;-67
2023/11/05 10:35:21;;;;;;;4.37;3.97;;;;;;;6.15;100.00;99023.00;5033330;28;20036;-67
2023/11/05 10:37:52;;;;;;;5.53;4.37;;;;;;;6.22;100.00;99026.59;5033579;28;20049;-68
2023/11/05 10:40:18;;;;;;;4.47;3.97;;;;;;;6.19;100.00;99014.56;5033518;28;20302;-67
2023/11/05 10:42:45;;;;;;;4.53;3.87;;;;;;;6.08;100.00;99014.16;5032644;28;20067;-68
2023/11/05 10:45:17;;;;;;;5.17;4.67;;;;;;;5.93;100.00;98986.84;5030790;28;20125;-67
2023/11/05 10:47:45;;;;;;;6.43;3.93;;;;;;;6.10;100.00;98996.31;5032208;28;20075;-67
2023/11/05 10:50:19;;;;;;;6.05;4.70;;;;;;;6.19;100.00;98987.31;5030967;28;20041;-68
2023/11/05 10:52:49;;;;;;;5.27;4.43;;;;;;;6.21;100.00;98988.75;5031858;28;20041;-69
2023/11/05 10:55:15;;;;;;;7.40;4.93;;;;;;;6.00;100.00;98945.50;5032785;28;20488;-67
2023/11/05 10:57:48;;;;;;;5.90;4.97;;;;;;;6.16;100.00;98963.88;5040133;28;20030;-67
2023/11/05 11:00:14;;;;;;;6.10;5.50;;;;;;;6.30;100.00;98955.13;5042039;28;20049;-66
2023/11/05 11:02:41;;;;;;;7.10;6.13;;;;;;;6.32;100.00;98955.78;5041105;28;20410;-66
2023/11/05 11:05:10;;;;;;;8.23;6.70;;;;;;;6.24;100.00;98942.66;5033817;28;20412;-70
2023/11/05 11:07:39;;;;;;;6.73;5.80;;;;;;;6.19;100.00;98947.66;5033020;28;20516;-67
2023/11/05 11:10:07;;;;;;;8.63;7.13;;;;;;;6.21;100.00;98964.97;5032037;28;20038;-66
2023/11/05 11:12:34;;;;;;;6.40;5.22;;;;;;;6.23;100.00;98975.38;5031825;28;20041;-67
2023/11/05 11:15:12;;;;;;;7.60;6.07;;;;;;;6.38;100.00;99010.63;5032608;28;20140;-68
2023/11/05 11:17:41;;;;;;;9.67;5.63;;;;;;;6.47;100.00;99012.19;5033456;28;20096;-69
2023/11/05 11:20:10;;;;;;;7.20;5.80;;;;;;;6.51;100.00;99021.41;5032363;28;20037;-68
2023/11/05 11:22:45;;;;;;;10.23;6.53;;;;;;;6.43;100.00;99007.44;5030006;28;20153;-65